Medicine Hat Airport
CYXH : now visible

Airfield :











YOU CAN JOIN US ON...

 
LOGIN :

Register | Disclaimer

   EN    FR    IT 

 









Legend :    VFR   Marginal VFR   IFR   Intensive IFR   Very Intensive IFR
Visi :
Ceiling :
>= 8 km
>= 3000ft
5 to 8 km
1000 to 3000 ft
1500m to 5 km
500 to 1000 ft
800 to 1500m
200 to 500 ft
< 800m
< 200 ft
Symbols :   Thunderstorms  Fog  Heavy snow  Heavy precipitations  Wind > 20 kt






- Airport Elevation : 2352 ft
- IATA code : YXH


CYXH - Medicine Hat

CURRENT METAR :
  • 120300Z 26003KT 15SM SCT080 M18/M20 A2994 RMK AC3 LAST STFD OBS/NEXT 121300Z SLP192

EXPIRED METARs :
  • 120200Z 00000KT 15SM FEW055 FEW150 M18/M20 A2995 RMK SC1AC2 SC TR SLP195
  • 120100Z 28002KT 15SM FEW017 SCT150 M16/M17 A2996 RMK SC2AC1 SLP197

TAF TAF CYXH
Valid from the 12 at 00:00 until the 12 at 12:00 UTC


112338Z 1200/1212 33005KT P6SM FEW020
TEMPO 1200/1202 3SM -SN BR BKN020
FM120300 VRB03KT P6SM SCT006
TEMPO 1203/1212 2SM BR BKN006
PROB30 1205/1212 1/2SM FZFG VV002 RMK NXT FCST BY 120600Z



MET'MAP, your aeronautical weather chart ! - Copyright ORBIFLY December 2007 - Disclaimer

ORBIFLY MET'MAP TEAM :

Programming & Development : Alexandra Zaïnal
Concept & original design : Baudouin d'Aumeries
Assistance for programming : Marc-Olivier Méhu
Technical & hardware support : Manuel Goepfert

Contact : metmap@orbifly.com




SOURCES & CREDITS :

   NOAA       Earth
Advisory